sensor_id;sensor_type;location;lat;lon;timestamp;P1;durP1;ratioP1;P2;durP2;ratioP2
66139;SDS011;52945;51.908;8.364;2023-04-12T00:01:54;5.82;;;2.20;;
66139;SDS011;52945;51.908;8.364;2023-04-12T00:04:55;4.88;;;2.05;;
66139;SDS011;52945;51.908;8.364;2023-04-12T00:07:56;6.90;;;1.80;;
66139;SDS011;52945;51.908;8.364;2023-04-12T00:11:00;5.05;;;1.90;;
66139;SDS011;52945;51.908;8.364;2023-04-12T00:14:01;5.10;;;1.90;;
66139;SDS011;52945;51.908;8.364;2023-04-12T00:17:02;4.55;;;1.42;;
66139;SDS011;52945;51.908;8.364;2023-04-12T00:20:05;3.17;;;1.35;;
66139;SDS011;52945;51.908;8.364;2023-04-12T00:23:11;3.28;;;1.50;;
66139;SDS011;52945;51.908;8.364;2023-04-12T00:26:12;2.65;;;1.20;;
66139;SDS011;52945;51.908;8.364;2023-04-12T00:29:14;2.83;;;1.50;;
66139;SDS011;52945;51.908;8.364;2023-04-12T00:32:15;6.90;;;1.48;;
66139;SDS011;52945;51.908;8.364;2023-04-12T00:35:15;5.80;;;1.83;;
66139;SDS011;52945;51.908;8.364;2023-04-12T00:38:16;3.40;;;1.50;;
66139;SDS011;52945;51.908;8.364;2023-04-12T00:41:17;7.70;;;1.75;;
66139;SDS011;52945;51.908;8.364;2023-04-12T00:44:17;7.15;;;1.48;;
66139;SDS011;52945;51.908;8.364;2023-04-12T00:47:18;2.72;;;1.60;;
66139;SDS011;52945;51.908;8.364;2023-04-12T00:50:19;3.53;;;1.42;;
66139;SDS011;52945;51.908;8.364;2023-04-12T00:53:20;6.90;;;2.03;;
66139;SDS011;52945;51.908;8.364;2023-04-12T00:56:27;2.38;;;1.38;;
66139;SDS011;52945;51.908;8.364;2023-04-12T00:59:28;4.65;;;1.52;;
66139;SDS011;52945;51.908;8.364;2023-04-12T01:02:29;3.63;;;1.48;;
66139;SDS011;52945;51.908;8.364;2023-04-12T01:05:30;3.17;;;1.50;;
66139;SDS011;52945;51.908;8.364;2023-04-12T01:18:14;3.08;;;1.38;;
66139;SDS011;52945;51.908;8.364;2023-04-12T01:21:21;3.75;;;1.35;;
66139;SDS011;52945;51.908;8.364;2023-04-12T01:24:42;3.08;;;1.40;;
66139;SDS011;52945;51.908;8.364;2023-04-12T01:27:47;5.40;;;1.65;;
66139;SDS011;52945;51.908;8.364;2023-04-12T01:30:52;5.03;;;1.42;;
66139;SDS011;52945;51.908;8.364;2023-04-12T01:33:53;2.65;;;1.40;;
66139;SDS011;52945;51.908;8.364;2023-04-12T01:36:57;4.40;;;1.20;;
66139;SDS011;52945;51.908;8.364;2023-04-12T01:40:00;5.28;;;1.58;;
66139;SDS011;52945;51.908;8.364;2023-04-12T01:43:11;3.03;;;1.40;;
66139;SDS011;52945;51.908;8.364;2023-04-12T01:46:15;3.95;;;1.60;;
66139;SDS011;52945;51.908;8.364;2023-04-12T01:49:19;6.10;;;1.55;;
66139;SDS011;52945;51.908;8.364;2023-04-12T01:52:25;4.30;;;1.58;;
66139;SDS011;52945;51.908;8.364;2023-04-12T01:55:31;4.57;;;1.45;;
66139;SDS011;52945;51.908;8.364;2023-04-12T01:58:33;3.90;;;1.35;;
66139;SDS011;52945;51.908;8.364;2023-04-12T02:01:34;3.42;;;1.30;;
66139;SDS011;52945;51.908;8.364;2023-04-12T02:04:36;3.47;;;1.27;;
66139;SDS011;52945;51.908;8.364;2023-04-12T02:10:38;1.75;;;1.10;;
66139;SDS011;52945;51.908;8.364;2023-04-12T02:13:39;1.20;;;1.05;;
66139;SDS011;52945;51.908;8.364;2023-04-12T02:16:40;6.43;;;1.40;;
66139;SDS011;52945;51.908;8.364;2023-04-12T02:19:43;2.47;;;1.23;;
66139;SDS011;52945;51.908;8.364;2023-04-12T02:22:44;5.65;;;1.50;;
66139;SDS011;52945;51.908;8.364;2023-04-12T02:25:45;3.30;;;1.20;;
66139;SDS011;52945;51.908;8.364;2023-04-12T02:28:45;2.60;;;1.10;;
66139;SDS011;52945;51.908;8.364;2023-04-12T02:31:46;3.55;;;1.23;;
66139;SDS011;52945;51.908;8.364;2023-04-12T02:34:47;4.50;;;1.30;;
66139;SDS011;52945;51.908;8.364;2023-04-12T02:37:50;3.45;;;1.75;;
66139;SDS011;52945;51.908;8.364;2023-04-12T02:40:50;2.95;;;1.35;;
66139;SDS011;52945;51.908;8.364;2023-04-12T02:43:51;3.08;;;1.00;;
66139;SDS011;52945;51.908;8.364;2023-04-12T02:46:52;1.92;;;0.98;;
66139;SDS011;52945;51.908;8.364;2023-04-12T02:49:52;1.92;;;1.20;;
66139;SDS011;52945;51.908;8.364;2023-04-12T02:52:53;4.13;;;1.60;;
66139;SDS011;52945;51.908;8.364;2023-04-12T02:55:53;3.65;;;1.50;;
66139;SDS011;52945;51.908;8.364;2023-04-12T02:58:56;3.92;;;1.13;;
66139;SDS011;52945;51.908;8.364;2023-04-12T03:01:56;3.70;;;1.25;;
66139;SDS011;52945;51.908;8.364;2023-04-12T03:04:57;1.95;;;1.17;;
66139;SDS011;52945;51.908;8.364;2023-04-12T03:07:57;3.75;;;1.27;;
66139;SDS011;52945;51.908;8.364;2023-04-12T03:10:58;1.48;;;0.98;;
66139;SDS011;52945;51.908;8.364;2023-04-12T03:13:58;4.80;;;1.30;;
66139;SDS011;52945;51.908;8.364;2023-04-12T03:16:59;1.63;;;1.00;;
66139;SDS011;52945;51.908;8.364;2023-04-12T03:20:03;3.05;;;1.30;;
66139;SDS011;52945;51.908;8.364;2023-04-12T03:23:08;3.63;;;1.20;;
66139;SDS011;52945;51.908;8.364;2023-04-12T03:26:09;2.17;;;1.17;;
66139;SDS011;52945;51.908;8.364;2023-04-12T03:29:10;1.30;;;1.13;;
66139;SDS011;52945;51.908;8.364;2023-04-12T03:32:11;2.33;;;1.42;;
66139;SDS011;52945;51.908;8.364;2023-04-12T03:35:12;1.98;;;1.10;;
66139;SDS011;52945;51.908;8.364;2023-04-12T03:38:12;2.90;;;1.52;;
66139;SDS011;52945;51.908;8.364;2023-04-12T03:41:13;2.28;;;1.30;;
66139;SDS011;52945;51.908;8.364;2023-04-12T03:44:14;3.88;;;1.10;;
66139;SDS011;52945;51.908;8.364;2023-04-12T03:47:15;6.03;;;1.42;;
66139;SDS011;52945;51.908;8.364;2023-04-12T03:50:15;4.72;;;1.20;;
66139;SDS011;52945;51.908;8.364;2023-04-12T03:53:16;3.55;;;1.20;;
66139;SDS011;52945;51.908;8.364;2023-04-12T03:56:17;3.85;;;1.50;;
66139;SDS011;52945;51.908;8.364;2023-04-12T03:59:19;4.95;;;1.58;;
66139;SDS011;52945;51.908;8.364;2023-04-12T04:02:20;1.88;;;1.20;;
66139;SDS011;52945;51.908;8.364;2023-04-12T04:05:20;2.63;;;1.30;;
66139;SDS011;52945;51.908;8.364;2023-04-12T04:08:21;4.10;;;1.10;;
66139;SDS011;52945;51.908;8.364;2023-04-12T04:11:22;2.03;;;1.13;;
66139;SDS011;52945;51.908;8.364;2023-04-12T04:14:23;3.35;;;1.48;;
66139;SDS011;52945;51.908;8.364;2023-04-12T04:17:24;2.85;;;1.13;;
66139;SDS011;52945;51.908;8.364;2023-04-12T04:20:25;4.40;;;1.50;;
66139;SDS011;52945;51.908;8.364;2023-04-12T04:23:25;5.15;;;1.50;;
66139;SDS011;52945;51.908;8.364;2023-04-12T04:26:28;1.20;;;1.10;;
66139;SDS011;52945;51.908;8.364;2023-04-12T04:29:32;4.68;;;1.23;;
66139;SDS011;52945;51.908;8.364;2023-04-12T04:32:32;3.95;;;1.38;;
66139;SDS011;52945;51.908;8.364;2023-04-12T04:35:33;2.35;;;1.25;;
66139;SDS011;52945;51.908;8.364;2023-04-12T04:38:34;1.67;;;1.10;;
66139;SDS011;52945;51.908;8.364;2023-04-12T04:41:35;3.53;;;1.45;;
66139;SDS011;52945;51.908;8.364;2023-04-12T04:44:40;4.70;;;1.27;;
66139;SDS011;52945;51.908;8.364;2023-04-12T04:47:40;3.42;;;1.10;;
66139;SDS011;52945;51.908;8.364;2023-04-12T04:50:41;5.15;;;1.33;;
66139;SDS011;52945;51.908;8.364;2023-04-12T04:53:42;3.80;;;1.20;;
66139;SDS011;52945;51.908;8.364;2023-04-12T04:56:43;3.72;;;1.35;;
66139;SDS011;52945;51.908;8.364;2023-04-12T04:59:44;1.65;;;1.08;;
66139;SDS011;52945;51.908;8.364;2023-04-12T05:02:44;3.33;;;1.38;;
66139;SDS011;52945;51.908;8.364;2023-04-12T05:05:46;5.35;;;1.38;;
66139;SDS011;52945;51.908;8.364;2023-04-12T05:08:48;2.67;;;1.05;;
66139;SDS011;52945;51.908;8.364;2023-04-12T05:11:48;2.47;;;1.25;;
66139;SDS011;52945;51.908;8.364;2023-04-12T05:14:49;6.13;;;1.42;;
66139;SDS011;52945;51.908;8.364;2023-04-12T05:17:50;2.50;;;1.17;;
66139;SDS011;52945;51.908;8.364;2023-04-12T05:20:50;4.53;;;1.30;;
66139;SDS011;52945;51.908;8.364;2023-04-12T05:23:51;3.08;;;1.48;;
66139;SDS011;52945;51.908;8.364;2023-04-12T05:26:51;1.42;;;1.20;;
66139;SDS011;52945;51.908;8.364;2023-04-12T05:29:52;2.63;;;1.30;;
66139;SDS011;52945;51.908;8.364;2023-04-12T05:32:53;2.30;;;1.13;;
66139;SDS011;52945;51.908;8.364;2023-04-12T05:35:53;1.10;;;1.00;;
66139;SDS011;52945;51.908;8.364;2023-04-12T05:38:54;5.22;;;1.00;;
66139;SDS011;52945;51.908;8.364;2023-04-12T05:41:54;2.22;;;1.10;;
66139;SDS011;52945;51.908;8.364;2023-04-12T05:44:55;2.33;;;1.40;;
66139;SDS011;52945;51.908;8.364;2023-04-12T05:47:55;2.28;;;1.15;;
66139;SDS011;52945;51.908;8.364;2023-04-12T05:50:56;1.60;;;0.98;;
66139;SDS011;52945;51.908;8.364;2023-04-12T05:53:56;2.88;;;1.10;;
66139;SDS011;52945;51.908;8.364;2023-04-12T05:56:57;1.30;;;0.90;;
66139;SDS011;52945;51.908;8.364;2023-04-12T05:59:58;1.42;;;1.13;;
66139;SDS011;52945;51.908;8.364;2023-04-12T06:02:58;4.82;;;1.40;;
66139;SDS011;52945;51.908;8.364;2023-04-12T06:05:59;1.38;;;0.93;;
66139;SDS011;52945;51.908;8.364;2023-04-12T06:09:01;1.40;;;1.10;;
66139;SDS011;52945;51.908;8.364;2023-04-12T06:12:03;1.30;;;1.10;;
66139;SDS011;52945;51.908;8.364;2023-04-12T06:15:04;3.22;;;1.35;;
66139;SDS011;52945;51.908;8.364;2023-04-12T06:18:06;4.47;;;1.20;;
66139;SDS011;52945;51.908;8.364;2023-04-12T06:21:07;2.08;;;1.17;;
66139;SDS011;52945;51.908;8.364;2023-04-12T06:24:07;5.03;;;1.58;;
66139;SDS011;52945;51.908;8.364;2023-04-12T06:27:08;1.75;;;1.13;;
66139;SDS011;52945;51.908;8.364;2023-04-12T06:30:09;3.30;;;1.13;;
66139;SDS011;52945;51.908;8.364;2023-04-12T06:33:10;1.70;;;1.20;;
66139;SDS011;52945;51.908;8.364;2023-04-12T06:36:11;1.30;;;1.15;;
66139;SDS011;52945;51.908;8.364;2023-04-12T06:39:13;1.10;;;1.00;;
66139;SDS011;52945;51.908;8.364;2023-04-12T06:42:16;3.78;;;1.38;;
66139;SDS011;52945;51.908;8.364;2023-04-12T06:48:17;2.22;;;1.02;;
66139;SDS011;52945;51.908;8.364;2023-04-12T06:51:18;2.30;;;1.20;;
66139;SDS011;52945;51.908;8.364;2023-04-12T06:54:19;4.95;;;1.33;;
66139;SDS011;52945;51.908;8.364;2023-04-12T06:57:19;2.35;;;1.33;;
66139;SDS011;52945;51.908;8.364;2023-04-12T07:00:20;4.13;;;1.25;;
66139;SDS011;52945;51.908;8.364;2023-04-12T07:03:21;3.13;;;1.25;;
66139;SDS011;52945;51.908;8.364;2023-04-12T07:06:23;1.92;;;1.30;;
66139;SDS011;52945;51.908;8.364;2023-04-12T07:09:24;2.67;;;1.35;;
66139;SDS011;52945;51.908;8.364;2023-04-12T07:12:24;2.15;;;1.48;;
66139;SDS011;52945;51.908;8.364;2023-04-12T07:15:25;1.90;;;1.35;;
66139;SDS011;52945;51.908;8.364;2023-04-12T07:18:25;4.47;;;1.30;;
66139;SDS011;52945;51.908;8.364;2023-04-12T07:21:26;2.50;;;1.30;;
66139;SDS011;52945;51.908;8.364;2023-04-12T07:24:27;3.05;;;1.38;;
66139;SDS011;52945;51.908;8.364;2023-04-12T07:27:28;1.40;;;1.00;;
66139;SDS011;52945;51.908;8.364;2023-04-12T07:30:28;3.35;;;1.13;;
66139;SDS011;52945;51.908;8.364;2023-04-12T07:33:29;4.25;;;1.50;;
66139;SDS011;52945;51.908;8.364;2023-04-12T07:36:30;2.03;;;1.55;;
66139;SDS011;52945;51.908;8.364;2023-04-12T07:39:31;1.45;;;1.00;;
66139;SDS011;52945;51.908;8.364;2023-04-12T07:42:33;1.60;;;1.25;;
66139;SDS011;52945;51.908;8.364;2023-04-12T07:45:37;4.90;;;1.48;;
66139;SDS011;52945;51.908;8.364;2023-04-12T07:48:38;1.80;;;1.15;;
66139;SDS011;52945;51.908;8.364;2023-04-12T07:51:38;2.25;;;1.27;;
66139;SDS011;52945;51.908;8.364;2023-04-12T07:54:39;1.83;;;1.40;;
66139;SDS011;52945;51.908;8.364;2023-04-12T07:57:40;1.20;;;1.00;;
66139;SDS011;52945;51.908;8.364;2023-04-12T08:00:41;1.58;;;1.13;;
66139;SDS011;52945;51.908;8.364;2023-04-12T08:03:42;4.00;;;1.23;;
66139;SDS011;52945;51.908;8.364;2023-04-12T08:06:43;1.48;;;1.27;;
66139;SDS011;52945;51.908;8.364;2023-04-12T08:09:43;3.15;;;1.27;;
66139;SDS011;52945;51.908;8.364;2023-04-12T08:12:45;1.85;;;1.30;;
66139;SDS011;52945;51.908;8.364;2023-04-12T08:15:46;1.92;;;1.17;;
66139;SDS011;52945;51.908;8.364;2023-04-12T08:18:47;2.38;;;1.05;;
66139;SDS011;52945;51.908;8.364;2023-04-12T08:21:47;1.88;;;1.05;;
66139;SDS011;52945;51.908;8.364;2023-04-12T08:24:48;1.92;;;1.17;;
66139;SDS011;52945;51.908;8.364;2023-04-12T08:27:49;3.10;;;1.42;;
66139;SDS011;52945;51.908;8.364;2023-04-12T08:33:50;1.90;;;1.20;;
66139;SDS011;52945;51.908;8.364;2023-04-12T08:36:51;1.95;;;1.42;;
66139;SDS011;52945;51.908;8.364;2023-04-12T08:39:51;1.45;;;1.15;;
66139;SDS011;52945;51.908;8.364;2023-04-12T08:42:52;3.78;;;1.50;;
66139;SDS011;52945;51.908;8.364;2023-04-12T08:45:53;2.83;;;1.27;;
66139;SDS011;52945;51.908;8.364;2023-04-12T08:48:55;2.30;;;1.45;;
66139;SDS011;52945;51.908;8.364;2023-04-12T08:51:59;1.30;;;1.08;;
66139;SDS011;52945;51.908;8.364;2023-04-12T08:55:05;4.22;;;1.20;;
66139;SDS011;52945;51.908;8.364;2023-04-12T08:58:06;3.05;;;1.20;;
66139;SDS011;52945;51.908;8.364;2023-04-12T09:04:13;1.67;;;1.27;;
66139;SDS011;52945;51.908;8.364;2023-04-12T09:07:13;1.77;;;1.13;;
66139;SDS011;52945;51.908;8.364;2023-04-12T09:10:28;1.50;;;1.15;;
66139;SDS011;52945;51.908;8.364;2023-04-12T09:13:34;4.40;;;1.50;;
66139;SDS011;52945;51.908;8.364;2023-04-12T09:16:41;2.55;;;1.30;;
66139;SDS011;52945;51.908;8.364;2023-04-12T09:19:41;1.20;;;1.10;;
66139;SDS011;52945;51.908;8.364;2023-04-12T09:22:42;1.02;;;0.93;;
66139;SDS011;52945;51.908;8.364;2023-04-12T09:25:44;1.02;;;1.00;;
66139;SDS011;52945;51.908;8.364;2023-04-12T09:28:47;1.55;;;1.13;;
66139;SDS011;52945;51.908;8.364;2023-04-12T09:31:54;1.10;;;0.93;;
66139;SDS011;52945;51.908;8.364;2023-04-12T09:34:57;0.88;;;0.73;;
66139;SDS011;52945;51.908;8.364;2023-04-12T09:38:09;0.90;;;0.90;;
66139;SDS011;52945;51.908;8.364;2023-04-12T09:41:17;0.80;;;0.80;;
66139;SDS011;52945;51.908;8.364;2023-04-12T09:44:26;1.25;;;0.93;;
66139;SDS011;52945;51.908;8.364;2023-04-12T09:47:37;1.35;;;1.10;;
66139;SDS011;52945;51.908;8.364;2023-04-12T09:50:38;1.13;;;1.02;;
66139;SDS011;52945;51.908;8.364;2023-04-12T09:53:39;0.85;;;0.85;;
66139;SDS011;52945;51.908;8.364;2023-04-12T09:56:44;1.23;;;1.05;;
66139;SDS011;52945;51.908;8.364;2023-04-12T09:59:47;1.20;;;1.10;;
66139;SDS011;52945;51.908;8.364;2023-04-12T10:02:52;0.80;;;0.73;;
66139;SDS011;52945;51.908;8.364;2023-04-12T10:05:54;0.70;;;0.70;;
66139;SDS011;52945;51.908;8.364;2023-04-12T10:08:55;1.98;;;0.93;;
66139;SDS011;52945;51.908;8.364;2023-04-12T10:11:56;0.68;;;0.68;;
66139;SDS011;52945;51.908;8.364;2023-04-12T10:14:58;0.75;;;0.75;;
66139;SDS011;52945;51.908;8.364;2023-04-12T10:18:02;0.63;;;0.63;;
66139;SDS011;52945;51.908;8.364;2023-04-12T10:21:05;1.10;;;0.77;;
66139;SDS011;52945;51.908;8.364;2023-04-12T10:24:06;0.60;;;0.60;;
66139;SDS011;52945;51.908;8.364;2023-04-12T10:27:08;0.65;;;0.65;;
66139;SDS011;52945;51.908;8.364;2023-04-12T10:33:25;0.70;;;0.70;;
66139;SDS011;52945;51.908;8.364;2023-04-12T10:39:51;0.93;;;0.80;;
66139;SDS011;52945;51.908;8.364;2023-04-12T10:49:37;1.00;;;0.70;;
66139;SDS011;52945;51.908;8.364;2023-04-12T10:55:41;0.80;;;0.80;;
66139;SDS011;52945;51.908;8.364;2023-04-12T11:05:06;1.17;;;0.43;;
66139;SDS011;52945;51.908;8.364;2023-04-12T11:08:08;0.60;;;0.60;;
66139;SDS011;52945;51.908;8.364;2023-04-12T11:11:18;1.52;;;0.73;;
66139;SDS011;52945;51.908;8.364;2023-04-12T11:14:28;0.68;;;0.68;;
66139;SDS011;52945;51.908;8.364;2023-04-12T11:17:32;1.67;;;1.08;;
66139;SDS011;52945;51.908;8.364;2023-04-12T11:20:33;1.08;;;0.80;;
66139;SDS011;52945;51.908;8.364;2023-04-12T11:23:34;0.90;;;0.77;;
66139;SDS011;52945;51.908;8.364;2023-04-12T11:26:36;0.70;;;0.70;;
66139;SDS011;52945;51.908;8.364;2023-04-12T11:29:37;0.95;;;0.80;;
66139;SDS011;52945;51.908;8.364;2023-04-12T11:32:38;0.63;;;0.63;;
66139;SDS011;52945;51.908;8.364;2023-04-12T11:35:42;0.95;;;0.65;;
66139;SDS011;52945;51.908;8.364;2023-04-12T11:38:42;0.82;;;0.82;;
66139;SDS011;52945;51.908;8.364;2023-04-12T11:41:45;0.73;;;0.73;;
66139;SDS011;52945;51.908;8.364;2023-04-12T11:47:47;2.00;;;0.75;;
66139;SDS011;52945;51.908;8.364;2023-04-12T11:50:48;1.17;;;0.90;;
66139;SDS011;52945;51.908;8.364;2023-04-12T11:53:52;0.52;;;0.52;;
66139;SDS011;52945;51.908;8.364;2023-04-12T11:56:55;0.60;;;0.60;;
66139;SDS011;52945;51.908;8.364;2023-04-12T11:59:59;0.57;;;0.50;;
66139;SDS011;52945;51.908;8.364;2023-04-12T12:03:00;0.60;;;0.50;;
66139;SDS011;52945;51.908;8.364;2023-04-12T12:06:02;1.15;;;0.57;;
66139;SDS011;52945;51.908;8.364;2023-04-12T12:09:03;0.60;;;0.60;;
66139;SDS011;52945;51.908;8.364;2023-04-12T12:12:03;0.52;;;0.52;;
66139;SDS011;52945;51.908;8.364;2023-04-12T12:15:05;0.68;;;0.68;;
66139;SDS011;52945;51.908;8.364;2023-04-12T12:18:07;0.47;;;0.47;;
66139;SDS011;52945;51.908;8.364;2023-04-12T12:21:09;0.52;;;0.52;;
66139;SDS011;52945;51.908;8.364;2023-04-12T12:24:10;0.47;;;0.47;;
66139;SDS011;52945;51.908;8.364;2023-04-12T12:27:16;0.68;;;0.60;;
66139;SDS011;52945;51.908;8.364;2023-04-12T12:30:37;0.70;;;0.65;;
66139;SDS011;52945;51.908;8.364;2023-04-12T12:33:39;0.70;;;0.70;;
66139;SDS011;52945;51.908;8.364;2023-04-12T12:36:40;1.17;;;0.98;;
66139;SDS011;52945;51.908;8.364;2023-04-12T12:39:58;2.70;;;0.80;;
66139;SDS011;52945;51.908;8.364;2023-04-12T12:43:18;1.65;;;1.10;;
66139;SDS011;52945;51.908;8.364;2023-04-12T12:46:19;0.60;;;0.57;;
66139;SDS011;52945;51.908;8.364;2023-04-12T12:49:20;0.80;;;0.80;;
66139;SDS011;52945;51.908;8.364;2023-04-12T12:52:21;0.73;;;0.73;;
66139;SDS011;52945;51.908;8.364;2023-04-12T12:55:22;0.75;;;0.60;;
66139;SDS011;52945;51.908;8.364;2023-04-12T12:58:23;0.77;;;0.60;;
66139;SDS011;52945;51.908;8.364;2023-04-12T13:01:23;1.30;;;1.15;;
66139;SDS011;52945;51.908;8.364;2023-04-12T13:04:24;0.95;;;0.90;;
66139;SDS011;52945;51.908;8.364;2023-04-12T13:07:25;0.80;;;0.80;;
66139;SDS011;52945;51.908;8.364;2023-04-12T13:10:26;0.80;;;0.80;;
66139;SDS011;52945;51.908;8.364;2023-04-12T13:13:26;1.13;;;0.93;;
66139;SDS011;52945;51.908;8.364;2023-04-12T13:16:27;1.10;;;1.00;;
66139;SDS011;52945;51.908;8.364;2023-04-12T13:19:28;1.00;;;0.80;;
66139;SDS011;52945;51.908;8.364;2023-04-12T13:22:28;1.63;;;1.02;;
66139;SDS011;52945;51.908;8.364;2023-04-12T13:25:29;1.75;;;1.30;;
66139;SDS011;52945;51.908;8.364;2023-04-12T13:28:29;1.63;;;1.27;;
66139;SDS011;52945;51.908;8.364;2023-04-12T13:31:30;1.92;;;1.20;;
66139;SDS011;52945;51.908;8.364;2023-04-12T13:34:31;1.30;;;1.20;;
66139;SDS011;52945;51.908;8.364;2023-04-12T13:37:34;1.63;;;1.52;;
66139;SDS011;52945;51.908;8.364;2023-04-12T13:40:35;3.72;;;1.80;;
66139;SDS011;52945;51.908;8.364;2023-04-12T13:43:36;2.50;;;1.75;;
66139;SDS011;52945;51.908;8.364;2023-04-12T13:46:36;3.45;;;1.90;;
66139;SDS011;52945;51.908;8.364;2023-04-12T13:49:37;3.03;;;1.92;;
66139;SDS011;52945;51.908;8.364;2023-04-12T13:52:38;3.17;;;2.00;;
66139;SDS011;52945;51.908;8.364;2023-04-12T13:57:06;2.90;;;2.13;;
66139;SDS011;52945;51.908;8.364;2023-04-12T14:00:07;3.35;;;2.03;;
66139;SDS011;52945;51.908;8.364;2023-04-12T14:03:08;4.57;;;2.70;;
66139;SDS011;52945;51.908;8.364;2023-04-12T14:06:26;6.75;;;2.13;;
66139;SDS011;52945;51.908;8.364;2023-04-12T14:09:27;3.85;;;2.50;;
66139;SDS011;52945;51.908;8.364;2023-04-12T14:12:29;3.25;;;2.60;;
66139;SDS011;52945;51.908;8.364;2023-04-12T14:15:30;4.38;;;2.72;;
66139;SDS011;52945;51.908;8.364;2023-04-12T14:18:30;4.07;;;2.80;;
66139;SDS011;52945;51.908;8.364;2023-04-12T14:21:31;3.88;;;2.60;;
66139;SDS011;52945;51.908;8.364;2023-04-12T14:24:31;5.72;;;2.72;;
66139;SDS011;52945;51.908;8.364;2023-04-12T14:27:32;3.97;;;2.60;;
66139;SDS011;52945;51.908;8.364;2023-04-12T14:30:34;4.30;;;2.70;;
66139;SDS011;52945;51.908;8.364;2023-04-12T14:33:34;4.60;;;3.03;;
66139;SDS011;52945;51.908;8.364;2023-04-12T14:36:35;3.83;;;2.92;;
66139;SDS011;52945;51.908;8.364;2023-04-12T14:39:36;4.80;;;3.13;;
66139;SDS011;52945;51.908;8.364;2023-04-12T14:42:36;4.97;;;3.17;;
66139;SDS011;52945;51.908;8.364;2023-04-12T14:45:37;3.90;;;2.72;;
66139;SDS011;52945;51.908;8.364;2023-04-12T14:48:39;5.57;;;2.80;;
66139;SDS011;52945;51.908;8.364;2023-04-12T14:51:40;4.18;;;2.63;;
66139;SDS011;52945;51.908;8.364;2023-04-12T14:54:40;3.10;;;2.10;;
66139;SDS011;52945;51.908;8.364;2023-04-12T14:57:41;4.20;;;2.55;;
66139;SDS011;52945;51.908;8.364;2023-04-12T15:00:42;3.15;;;2.00;;
66139;SDS011;52945;51.908;8.364;2023-04-12T15:03:42;3.42;;;2.05;;
66139;SDS011;52945;51.908;8.364;2023-04-12T15:06:43;3.35;;;1.83;;
66139;SDS011;52945;51.908;8.364;2023-04-12T15:09:44;2.35;;;1.65;;
66139;SDS011;52945;51.908;8.364;2023-04-12T15:12:45;3.65;;;1.60;;
66139;SDS011;52945;51.908;8.364;2023-04-12T15:15:46;2.03;;;1.35;;
66139;SDS011;52945;51.908;8.364;2023-04-12T15:18:47;1.08;;;0.98;;
66139;SDS011;52945;51.908;8.364;2023-04-12T15:21:50;1.13;;;0.90;;
66139;SDS011;52945;51.908;8.364;2023-04-12T15:24:51;1.25;;;0.68;;
66139;SDS011;52945;51.908;8.364;2023-04-12T15:27:52;1.58;;;0.85;;
66139;SDS011;52945;51.908;8.364;2023-04-12T15:30:52;1.50;;;0.80;;
66139;SDS011;52945;51.908;8.364;2023-04-12T15:33:54;1.77;;;0.85;;
66139;SDS011;52945;51.908;8.364;2023-04-12T15:36:54;1.33;;;1.00;;
66139;SDS011;52945;51.908;8.364;2023-04-12T15:39:55;1.83;;;0.70;;
66139;SDS011;52945;51.908;8.364;2023-04-12T15:42:56;1.30;;;0.70;;
66139;SDS011;52945;51.908;8.364;2023-04-12T15:45:57;1.10;;;0.70;;
66139;SDS011;52945;51.908;8.364;2023-04-12T15:48:58;1.40;;;0.80;;
66139;SDS011;52945;51.908;8.364;2023-04-12T15:51:59;0.65;;;0.63;;
66139;SDS011;52945;51.908;8.364;2023-04-12T15:54:59;1.27;;;0.68;;
66139;SDS011;52945;51.908;8.364;2023-04-12T15:58:00;2.75;;;0.80;;
66139;SDS011;52945;51.908;8.364;2023-04-12T16:01:00;4.00;;;1.10;;
66139;SDS011;52945;51.908;8.364;2023-04-12T16:04:01;1.80;;;0.90;;
66139;SDS011;52945;51.908;8.364;2023-04-12T16:07:02;2.58;;;0.90;;
66139;SDS011;52945;51.908;8.364;2023-04-12T16:10:03;3.13;;;1.02;;
66139;SDS011;52945;51.908;8.364;2023-04-12T16:13:05;3.35;;;0.90;;
66139;SDS011;52945;51.908;8.364;2023-04-12T16:16:08;2.80;;;0.90;;
66139;SDS011;52945;51.908;8.364;2023-04-12T16:19:11;3.30;;;1.50;;
66139;SDS011;52945;51.908;8.364;2023-04-12T16:22:12;2.90;;;1.20;;
66139;SDS011;52945;51.908;8.364;2023-04-12T16:25:16;6.30;;;1.65;;
66139;SDS011;52945;51.908;8.364;2023-04-12T16:28:17;6.68;;;1.23;;
66139;SDS011;52945;51.908;8.364;2023-04-12T16:31:18;2.47;;;1.40;;
66139;SDS011;52945;51.908;8.364;2023-04-12T16:34:19;3.60;;;1.10;;
66139;SDS011;52945;51.908;8.364;2023-04-12T16:37:21;2.10;;;0.88;;
66139;SDS011;52945;51.908;8.364;2023-04-12T16:40:21;3.00;;;1.08;;
66139;SDS011;52945;51.908;8.364;2023-04-12T16:43:23;1.48;;;1.00;;
66139;SDS011;52945;51.908;8.364;2023-04-12T16:46:24;1.52;;;1.10;;
66139;SDS011;52945;51.908;8.364;2023-04-12T16:49:24;1.45;;;0.93;;
66139;SDS011;52945;51.908;8.364;2023-04-12T16:52:25;3.85;;;1.10;;
66139;SDS011;52945;51.908;8.364;2023-04-12T16:55:25;2.70;;;1.65;;
66139;SDS011;52945;51.908;8.364;2023-04-12T16:58:26;4.70;;;1.35;;
66139;SDS011;52945;51.908;8.364;2023-04-12T17:01:27;2.85;;;1.10;;
66139;SDS011;52945;51.908;8.364;2023-04-12T17:04:29;2.65;;;0.98;;
66139;SDS011;52945;51.908;8.364;2023-04-12T17:07:29;7.10;;;1.27;;
66139;SDS011;52945;51.908;8.364;2023-04-12T17:10:31;4.35;;;1.23;;
66139;SDS011;52945;51.908;8.364;2023-04-12T17:16:33;4.13;;;1.08;;
66139;SDS011;52945;51.908;8.364;2023-04-12T17:19:34;4.07;;;1.40;;
66139;SDS011;52945;51.908;8.364;2023-04-12T17:22:34;1.15;;;1.05;;
66139;SDS011;52945;51.908;8.364;2023-04-12T17:25:35;0.70;;;0.70;;
66139;SDS011;52945;51.908;8.364;2023-04-12T17:28:36;2.80;;;1.50;;
66139;SDS011;52945;51.908;8.364;2023-04-12T17:31:38;3.10;;;1.40;;
66139;SDS011;52945;51.908;8.364;2023-04-12T17:34:39;6.07;;;1.55;;
66139;SDS011;52945;51.908;8.364;2023-04-12T17:37:41;5.78;;;1.75;;
66139;SDS011;52945;51.908;8.364;2023-04-12T17:40:41;3.92;;;1.73;;
66139;SDS011;52945;51.908;8.364;2023-04-12T17:43:43;1.65;;;1.02;;
66139;SDS011;52945;51.908;8.364;2023-04-12T17:46:46;2.72;;;1.00;;
66139;SDS011;52945;51.908;8.364;2023-04-12T17:49:46;3.30;;;1.10;;
66139;SDS011;52945;51.908;8.364;2023-04-12T17:52:47;2.67;;;1.23;;
66139;SDS011;52945;51.908;8.364;2023-04-12T17:55:48;3.72;;;1.33;;
66139;SDS011;52945;51.908;8.364;2023-04-12T17:58:48;4.70;;;1.10;;
66139;SDS011;52945;51.908;8.364;2023-04-12T18:01:49;2.55;;;1.52;;
66139;SDS011;52945;51.908;8.364;2023-04-12T18:04:49;2.22;;;1.20;;
66139;SDS011;52945;51.908;8.364;2023-04-12T18:07:51;5.28;;;1.45;;
66139;SDS011;52945;51.908;8.364;2023-04-12T18:10:51;5.88;;;1.60;;
66139;SDS011;52945;51.908;8.364;2023-04-12T18:13:52;5.00;;;1.13;;
66139;SDS011;52945;51.908;8.364;2023-04-12T18:16:53;3.78;;;1.35;;
66139;SDS011;52945;51.908;8.364;2023-04-12T18:19:53;8.50;;;1.70;;
66139;SDS011;52945;51.908;8.364;2023-04-12T18:22:54;5.78;;;1.50;;
66139;SDS011;52945;51.908;8.364;2023-04-12T18:25:54;9.70;;;1.90;;
66139;SDS011;52945;51.908;8.364;2023-04-12T18:28:55;4.30;;;1.83;;
66139;SDS011;52945;51.908;8.364;2023-04-12T18:31:56;2.58;;;1.27;;
66139;SDS011;52945;51.908;8.364;2023-04-12T18:34:56;3.55;;;1.40;;
66139;SDS011;52945;51.908;8.364;2023-04-12T18:37:57;4.35;;;1.63;;
66139;SDS011;52945;51.908;8.364;2023-04-12T18:40:58;3.95;;;1.65;;
66139;SDS011;52945;51.908;8.364;2023-04-12T18:43:58;7.35;;;1.40;;
66139;SDS011;52945;51.908;8.364;2023-04-12T18:46:59;6.35;;;2.13;;
66139;SDS011;52945;51.908;8.364;2023-04-12T18:50:00;4.82;;;2.00;;
66139;SDS011;52945;51.908;8.364;2023-04-12T18:53:00;3.90;;;1.55;;
66139;SDS011;52945;51.908;8.364;2023-04-12T18:56:05;4.47;;;1.80;;
66139;SDS011;52945;51.908;8.364;2023-04-12T18:59:07;4.63;;;1.90;;
66139;SDS011;52945;51.908;8.364;2023-04-12T19:02:08;11.73;;;1.63;;
66139;SDS011;52945;51.908;8.364;2023-04-12T19:05:08;7.13;;;1.95;;
66139;SDS011;52945;51.908;8.364;2023-04-12T19:08:10;3.03;;;1.70;;